Time;durP1;ratioP1;P1;durP2;ratioP2;P2;SDS_P1;SDS_P2;PMS_P1;PMS_P2;Temp;Humidity;BMP_temperature;BMP_pressure;BME280_temperature;BME280_humidity;BME280_pressure;Samples;Min_cycle;Max_cycle;Signal;HPM_P1;HPM_P2
2023/03/16 01:19:59;;;;;;;35.70;12.00;;;;;;;-147.16;75.82;78151.59;4279821;28;20797;-64
2023/03/16 01:22:27;;;;;;;32.17;11.67;;;;;;;-147.16;75.93;78153.63;4244112;28;22412;-65
2023/03/16 01:24:54;;;;;;;36.83;12.47;;;;;;;-147.16;75.57;78147.53;4242880;28;20238;-65
2023/03/16 01:27:20;;;;;;;35.83;13.30;;;;;;;-147.16;75.76;78149.56;4238449;28;20934;-64
2023/03/16 01:29:47;;;;;;;39.60;12.90;;;;;;;-147.16;75.95;78155.63;4244255;28;20618;-64
2023/03/16 01:32:13;;;;;;;36.87;12.77;;;;;;;-147.16;75.98;78165.75;4245009;28;20348;-65
2023/03/16 01:34:40;;;;;;;39.67;12.87;;;;;;;-147.16;76.42;78186.03;4250269;28;21650;-64
2023/03/16 01:37:06;;;;;;;36.93;12.70;;;;;;;-147.16;76.37;78175.91;4233385;28;20321;-65
2023/03/16 01:39:33;;;;;;;34.63;12.67;;;;;;;-147.16;76.77;78171.84;4238924;28;20549;-63
2023/03/16 01:42:00;;;;;;;35.20;12.37;;;;;;;-147.16;76.95;78153.63;4243467;28;20972;-65
2023/03/16 01:44:29;;;;;;;36.07;11.67;;;;;;;-147.16;76.35;78159.69;4242690;28;20243;-64
2023/03/16 01:46:56;;;;;;;34.83;12.67;;;;;;;-147.16;76.45;78153.63;4238883;28;20686;-65
2023/03/16 01:49:26;;;;;;;47.37;14.10;;;;;;;-147.16;76.02;78173.88;4245347;28;21699;-65
2023/03/16 01:52:05;;;;;;;40.30;12.60;;;;;;;-147.16;76.31;78153.63;4243815;28;25508;-64
2023/03/16 01:54:35;;;;;;;37.37;12.87;;;;;;;-147.16;76.34;78161.72;4247940;28;20522;-65
2023/03/16 01:57:06;;;;;;;40.50;12.87;;;;;;;-147.16;76.47;78153.63;4235120;28;20245;-65
2023/03/16 01:59:58;;;;;;;34.97;12.37;;;;;;;-147.16;76.22;78165.75;4252140;28;21386;-63
2023/03/16 02:02:26;;;;;;;36.50;12.47;;;;;;;-147.16;76.27;78169.81;4249449;28;20233;-67
2023/03/16 02:05:03;;;;;;;38.13;12.20;;;;;;;-147.16;76.62;78198.16;4255061;28;20308;-65
2023/03/16 02:07:33;;;;;;;37.10;11.47;;;;;;;-147.16;77.21;78198.16;4224561;28;20292;-66
2023/03/16 02:10:01;;;;;;;33.23;11.80;;;;;;;-147.16;77.26;78177.91;4244391;28;20230;-65
2023/03/16 02:12:28;;;;;;;40.27;13.23;;;;;;;-147.16;77.00;78179.94;4254691;28;20234;-63
2023/03/16 02:14:55;;;;;;;39.37;13.13;;;;;;;-147.16;77.00;78184.00;4242090;28;20238;-65
2023/03/16 02:17:25;;;;;;;34.60;11.50;;;;;;;-147.16;77.40;78184.00;4249175;28;20320;-64
2023/03/16 02:20:32;;;;;;;36.50;12.30;;;;;;;-147.16;78.28;78198.16;4265785;28;21774;-67
2023/03/16 02:22:59;;;;;;;32.57;12.30;;;;;;;-147.16;78.61;78214.38;4226865;28;20364;-66
2023/03/16 02:25:34;;;;;;;38.90;12.63;;;;;;;-147.16;79.23;78206.28;4250291;28;20418;-65
2023/03/16 02:28:12;;;;;;;34.80;12.37;;;;;;;-147.16;79.44;78218.44;4263697;28;20229;-66
2023/03/16 02:30:38;;;;;;;30.33;12.70;;;;;;;-147.16;79.71;78198.16;4253331;28;20607;-66
2023/03/16 02:33:05;;;;;;;39.57;12.90;;;;;;;-147.16;79.66;78181.97;4269082;28;20315;-66
2023/03/16 02:35:32;;;;;;;34.60;13.40;;;;;;;-147.16;79.46;78190.06;4259381;28;22173;-68
2023/03/16 02:37:59;;;;;;;32.63;13.20;;;;;;;-147.16;79.31;78204.25;4253924;28;20248;-64
2023/03/16 02:40:28;;;;;;;31.23;12.53;;;;;;;-147.16;79.21;78222.47;4261351;28;20259;-67
2023/03/16 02:43:09;;;;;;;34.27;13.27;;;;;;;-147.16;79.66;78226.53;4265159;28;20229;-66
2023/03/16 02:45:44;;;;;;;39.50;13.57;;;;;;;-147.16;80.03;78224.50;4262825;28;20245;-64
2023/03/16 02:48:21;;;;;;;41.10;14.17;;;;;;;-147.16;80.20;78238.69;4254257;28;25948;-64
2023/03/16 02:50:50;;;;;;;34.73;12.77;;;;;;;-147.16;80.67;78238.69;4254160;28;22112;-65
2023/03/16 02:53:17;;;;;;;43.17;14.00;;;;;;;-147.16;80.39;78238.69;4262525;28;20431;-65
2023/03/16 02:55:44;;;;;;;42.27;13.80;;;;;;;-147.16;80.50;78242.72;4249643;28;20323;-63
2023/03/16 02:58:12;;;;;;;39.60;14.63;;;;;;;-147.16;80.69;78246.78;4245024;28;20331;-65
2023/03/16 03:00:39;;;;;;;47.50;15.17;;;;;;;-147.16;80.88;78258.94;4264377;28;21304;-66
2023/03/16 03:03:08;;;;;;;51.30;15.80;;;;;;;-147.16;81.50;78283.22;4260312;28;23003;-64
2023/03/16 03:05:36;;;;;;;39.73;15.97;;;;;;;-147.16;81.76;78287.28;4276434;28;20323;-66
2023/03/16 03:08:03;;;;;;;48.20;15.33;;;;;;;-147.16;82.22;78283.22;4256464;28;20323;-65
2023/03/16 03:10:30;;;;;;;41.93;15.83;;;;;;;-147.16;82.30;78291.34;4256211;28;20222;-66
2023/03/16 03:12:56;;;;;;;49.10;16.53;;;;;;;-147.16;82.51;78291.34;4263642;28;20234;-65
2023/03/16 03:15:23;;;;;;;40.47;16.03;;;;;;;-147.16;82.72;78271.09;4269880;28;20318;-64
2023/03/16 03:17:50;;;;;;;40.80;15.70;;;;;;;-147.16;82.32;78271.09;4266540;28;20260;-64
2023/03/16 03:20:17;;;;;;;52.77;16.97;;;;;;;-147.16;82.63;78277.16;4234568;28;22992;-65
2023/03/16 03:22:45;;;;;;;56.27;16.83;;;;;;;-147.16;82.36;78281.22;4272629;28;20241;-65
2023/03/16 03:25:14;;;;;;;47.33;16.43;;;;;;;-147.16;82.41;78301.47;4273810;28;21700;-65
2023/03/16 03:27:42;;;;;;;44.07;15.30;;;;;;;-147.16;83.05;78307.53;4265140;28;20299;-63
2023/03/16 03:30:11;;;;;;;48.93;16.17;;;;;;;-147.16;82.99;78313.63;4264467;28;20323;-64
2023/03/16 03:32:38;;;;;;;45.60;15.97;;;;;;;-147.16;83.35;78311.59;4270394;28;20235;-64
2023/03/16 03:35:06;;;;;;;42.83;17.13;;;;;;;-147.16;83.40;78323.75;4271209;28;20260;-64
2023/03/16 03:37:33;;;;;;;49.57;17.40;;;;;;;-147.16;83.66;78327.78;4270141;28;20970;-65
2023/03/16 03:39:59;;;;;;;54.47;18.07;;;;;;;-147.16;84.26;78331.84;4271214;28;20234;-66
2023/03/16 03:42:26;;;;;;;51.63;17.93;;;;;;;-147.16;84.09;78307.53;4270302;28;25226;-64
2023/03/16 03:44:52;;;;;;;50.10;17.80;;;;;;;-147.16;84.32;78309.56;4269354;28;21038;-64
2023/03/16 03:47:19;;;;;;;51.90;17.57;;;;;;;-147.16;84.01;78311.59;4269510;28;20229;-65
2023/03/16 03:49:47;;;;;;;51.43;16.80;;;;;;;-147.16;83.74;78307.53;4268057;28;20245;-63
2023/03/16 03:52:13;;;;;;;44.63;17.30;;;;;;;-147.16;83.87;78307.53;4265950;28;20301;-63
2023/03/16 03:54:40;;;;;;;46.80;17.50;;;;;;;-147.16;84.05;78315.63;4265697;28;20410;-64
2023/03/16 03:57:06;;;;;;;44.93;17.50;;;;;;;-147.16;84.02;78315.63;4268944;28;20617;-64
2023/03/16 03:59:33;;;;;;;47.43;16.77;;;;;;;-147.16;83.67;78333.88;4264469;28;20435;-64
2023/03/16 04:02:00;;;;;;;47.17;16.10;;;;;;;-147.16;84.00;78344.00;4262251;28;22736;-65
2023/03/16 04:04:27;;;;;;;44.33;16.90;;;;;;;-147.16;84.17;78335.88;4266312;28;20330;-64
2023/03/16 04:06:53;;;;;;;50.90;18.07;;;;;;;-147.16;84.21;78337.91;4270679;28;20263;-66
2023/03/16 04:09:20;;;;;;;50.83;17.63;;;;;;;-147.16;84.25;78348.03;4264352;28;27236;-67
2023/03/16 04:11:47;;;;;;;51.03;18.00;;;;;;;-147.16;84.69;78346.00;4259575;28;20312;-64
2023/03/16 04:14:13;;;;;;;49.87;18.03;;;;;;;-147.16;84.67;78348.03;4263591;28;20408;-64
2023/03/16 04:16:40;;;;;;;56.40;17.37;;;;;;;-147.16;84.71;78346.00;4246221;28;20296;-65
2023/03/16 04:19:06;;;;;;;53.70;17.50;;;;;;;-147.16;84.87;78348.03;4268896;28;20242;-63
2023/03/16 04:21:33;;;;;;;58.43;17.50;;;;;;;-147.16;84.87;78356.16;4266060;28;20233;-64
2023/03/16 04:24:02;;;;;;;52.67;18.77;;;;;;;-147.16;84.85;78360.19;4244237;28;20400;-64
2023/03/16 04:26:29;;;;;;;49.57;18.90;;;;;;;-147.16;84.86;78358.16;4264338;28;23157;-63
2023/03/16 04:28:57;;;;;;;56.67;18.77;;;;;;;-147.16;85.24;78358.16;4258676;28;20289;-64
2023/03/16 04:31:23;;;;;;;57.00;18.63;;;;;;;-147.16;85.09;78360.19;4270129;28;22788;-65
2023/03/16 04:33:53;;;;;;;46.17;18.70;;;;;;;-147.16;84.90;78344.00;4268613;28;21664;-64
2023/03/16 04:36:26;;;;;;;50.13;18.50;;;;;;;-147.16;84.92;78344.00;4253329;28;20233;-64
2023/03/16 04:38:52;;;;;;;53.87;18.93;;;;;;;-147.16;84.90;78350.06;4265108;28;20272;-64
2023/03/16 04:41:19;;;;;;;56.67;18.83;;;;;;;-147.16;84.75;78344.00;4261672;28;20237;-63
2023/03/16 04:43:45;;;;;;;50.87;18.93;;;;;;;-147.16;85.09;78348.03;4262520;28;22114;-65
2023/03/16 04:46:12;;;;;;;50.13;19.17;;;;;;;-147.16;84.67;78354.13;4271121;28;21500;-64
2023/03/16 04:48:38;;;;;;;49.07;19.37;;;;;;;-147.16;84.80;78360.19;4263316;28;20337;-64
2023/03/16 04:51:05;;;;;;;53.27;18.77;;;;;;;-147.16;84.59;78364.25;4273433;28;20287;-65
2023/03/16 04:53:32;;;;;;;51.80;20.67;;;;;;;-147.16;84.94;78370.31;4264592;28;20253;-66
2023/03/16 04:55:59;;;;;;;54.67;20.37;;;;;;;-147.16;84.96;78356.16;4264547;28;22100;-65
2023/03/16 04:58:25;;;;;;;55.50;19.80;;;;;;;-147.16;84.84;78362.22;4263180;28;20406;-63
2023/03/16 05:00:52;;;;;;;53.87;19.67;;;;;;;-147.16;84.74;78364.25;4254286;28;20233;-63
2023/03/16 05:03:20;;;;;;;64.27;20.60;;;;;;;-147.16;84.43;78372.34;4264660;28;20592;-64
2023/03/16 05:05:47;;;;;;;54.57;19.93;;;;;;;-147.16;84.57;78380.44;4267206;28;21327;-65
2023/03/16 05:08:14;;;;;;;56.30;18.67;;;;;;;-147.16;84.74;78384.50;4273404;28;22034;-64
2023/03/16 05:10:40;;;;;;;48.47;18.93;;;;;;;-147.16;84.94;78370.31;4281974;28;20354;-63
2023/03/16 05:13:07;;;;;;;53.40;20.03;;;;;;;-147.16;85.00;78368.28;4280511;28;20792;-64
2023/03/16 05:15:34;;;;;;;57.63;20.47;;;;;;;-147.16;84.60;78368.28;4283694;28;20244;-64
2023/03/16 05:18:01;;;;;;;63.13;21.50;;;;;;;-147.16;84.62;78368.28;4278902;28;22089;-65
2023/03/16 05:20:27;;;;;;;61.77;20.37;;;;;;;-147.16;84.57;78356.16;4263559;28;21040;-64
2023/03/16 05:22:54;;;;;;;52.77;18.87;;;;;;;-147.16;84.77;78356.16;4268746;28;21662;-64
2023/03/16 05:25:21;;;;;;;52.50;20.17;;;;;;;-147.16;84.54;78348.03;4273925;28;20326;-65
2023/03/16 05:27:50;;;;;;;52.33;19.13;;;;;;;-147.16;84.14;78339.94;4262367;28;22705;-64
2023/03/16 05:30:17;;;;;;;52.63;20.40;;;;;;;-147.16;84.17;78323.75;4264083;28;21275;-64
2023/03/16 05:32:44;;;;;;;57.03;20.40;;;;;;;-147.16;83.62;78313.63;4274878;28;20230;-65
2023/03/16 05:35:12;;;;;;;61.67;19.77;;;;;;;-147.16;83.51;78309.56;4262624;28;20226;-65
2023/03/16 05:37:40;;;;;;;53.13;19.50;;;;;;;-147.16;83.10;78295.38;4255169;28;20231;-64
2023/03/16 05:40:16;;;;;;;52.57;20.10;;;;;;;-147.16;83.02;78287.28;4260992;28;20714;-65
2023/03/16 05:42:44;;;;;;;54.13;20.83;;;;;;;-147.16;82.08;78289.31;4258077;28;26569;-65
2023/03/16 05:45:12;;;;;;;48.43;19.37;;;;;;;-147.16;82.05;78271.09;4250201;28;20229;-66
2023/03/16 05:47:40;;;;;;;50.63;18.80;;;;;;;-147.16;81.83;78283.22;4268832;28;20287;-65
2023/03/16 05:50:10;;;;;;;45.40;17.67;;;;;;;-147.16;81.44;78271.09;4251697;28;20283;-63
2023/03/16 05:52:37;;;;;;;53.77;19.40;;;;;;;-147.16;81.57;78262.97;4247265;28;20312;-63
2023/03/16 05:55:05;;;;;;;48.10;19.13;;;;;;;-147.16;80.98;78275.13;4260374;28;21091;-63
2023/03/16 05:57:32;;;;;;;49.33;18.67;;;;;;;-147.16;80.95;78252.84;4260909;28;20307;-66
2023/03/16 06:00:00;;;;;;;46.80;18.13;;;;;;;-147.16;80.65;78230.56;4260623;28;20236;-63
2023/03/16 06:02:27;;;;;;;59.47;20.40;;;;;;;-147.16;79.98;78244.75;4240587;28;21365;-63
2023/03/16 06:04:54;;;;;;;48.07;19.03;;;;;;;-147.16;79.65;78258.94;4270472;28;20228;-65
2023/03/16 06:07:20;;;;;;;51.80;19.90;;;;;;;-147.16;79.53;78256.91;4262097;28;20423;-62
2023/03/16 06:09:47;;;;;;;53.50;20.77;;;;;;;-147.16;79.37;78248.81;4264141;28;21432;-63
2023/03/16 06:12:14;;;;;;;55.27;20.00;;;;;;;-147.16;79.34;78234.63;4275402;28;23989;-66
2023/03/16 06:14:40;;;;;;;56.60;19.43;;;;;;;-147.16;79.18;78226.53;4271753;28;21387;-63
2023/03/16 06:17:07;;;;;;;56.40;20.43;;;;;;;-147.16;79.25;78232.59;4260428;28;20401;-63
2023/03/16 06:19:34;;;;;;;60.03;20.90;;;;;;;-147.16;79.18;78234.63;4266096;28;21810;-64
2023/03/16 06:22:00;;;;;;;48.43;20.30;;;;;;;-147.16;78.72;78208.28;4267673;28;20354;-64
2023/03/16 06:24:27;;;;;;;48.27;18.30;;;;;;;-147.16;78.43;78246.78;4268444;28;20500;-66
2023/03/16 06:26:53;;;;;;;55.27;18.93;;;;;;;-147.16;78.91;78230.56;4286707;28;20267;-67
2023/03/16 06:29:20;;;;;;;48.13;18.70;;;;;;;-147.16;78.60;78230.56;4279151;28;20252;-65
2023/03/16 06:31:50;;;;;;;52.50;19.87;;;;;;;-147.16;78.85;78210.31;4280745;28;20245;-65
2023/03/16 06:34:17;;;;;;;58.57;19.00;;;;;;;-147.16;78.47;78190.06;4303852;28;20728;-67
2023/03/16 06:36:43;;;;;;;48.20;19.70;;;;;;;-147.16;78.10;78173.88;4276842;28;20238;-67
2023/03/16 06:39:10;;;;;;;49.67;20.10;;;;;;;-147.16;77.56;78177.91;4280065;28;20236;-66
2023/03/16 06:41:37;;;;;;;52.33;19.83;;;;;;;-147.16;77.60;78153.63;4286130;28;20242;-66
2023/03/16 06:44:05;;;;;;;56.40;19.20;;;;;;;-147.16;77.12;78186.03;4273547;28;21245;-65
2023/03/16 06:46:31;;;;;;;45.90;18.57;;;;;;;-147.16;77.30;78169.81;4277290;28;20238;-67
2023/03/16 06:48:59;;;;;;;52.43;17.80;;;;;;;-147.16;76.71;78161.72;4264100;28;20736;-66
2023/03/16 06:51:26;;;;;;;43.47;17.57;;;;;;;-147.16;76.76;78165.75;4273844;28;20230;-65
2023/03/16 06:53:53;;;;;;;50.27;18.73;;;;;;;-147.16;76.70;78169.81;4284018;28;20305;-66
2023/03/16 06:56:20;;;;;;;55.80;19.80;;;;;;;-147.16;76.67;78165.75;4265825;28;25056;-62
2023/03/16 06:58:48;;;;;;;52.40;18.67;;;;;;;-147.16;76.47;78161.72;4272604;28;21585;-62
2023/03/16 07:01:14;;;;;;;43.80;18.20;;;;;;;-147.16;76.03;78117.16;4281427;28;20660;-64
2023/03/16 07:03:41;;;;;;;46.27;18.47;;;;;;;-147.16;75.14;78127.28;4258874;28;20284;-63
2023/03/16 07:06:08;;;;;;;46.37;17.97;;;;;;;-147.16;74.80;78125.25;4271230;28;20225;-64
2023/03/16 07:08:35;;;;;;;49.30;17.63;;;;;;;-147.16;74.87;78149.56;4286301;28;22066;-66
2023/03/16 07:11:02;;;;;;;52.10;19.40;;;;;;;-147.16;74.97;78145.50;4268823;28;20237;-64
2023/03/16 07:13:29;;;;;;;50.27;19.80;;;;;;;-147.16;75.30;78125.25;4280708;28;20251;-64
2023/03/16 07:15:55;;;;;;;54.87;19.30;;;;;;;-147.16;75.39;78129.31;4276534;28;20240;-63
2023/03/16 07:18:24;;;;;;;52.27;18.87;;;;;;;-147.16;74.78;78121.22;4279041;28;21211;-63
2023/03/16 07:20:53;;;;;;;54.50;20.40;;;;;;;-147.16;74.49;78117.16;4273887;28;20242;-63
2023/03/16 07:23:20;;;;;;;51.10;18.17;;;;;;;-147.16;74.54;78094.88;4299480;28;20638;-65
2023/03/16 07:25:47;;;;;;;53.93;19.17;;;;;;;-147.16;74.11;78076.66;4295715;28;21521;-65
2023/03/16 07:28:14;;;;;;;48.93;18.67;;;;;;;-147.16;73.14;78054.38;4275177;28;20469;-64
2023/03/16 07:30:40;;;;;;;54.47;19.73;;;;;;;-147.16;72.59;78030.06;4299937;28;21134;-63
2023/03/16 07:33:22;;;;;;;50.37;19.47;;;;;;;-147.16;70.82;77936.91;4313766;28;20710;-65
2023/03/16 07:35:48;;;;;;;41.33;17.97;;;;;;;-147.16;67.56;77744.53;4291330;28;23151;-63
2023/03/16 07:38:15;;;;;;;43.33;17.47;;;;;;;-147.16;61.76;77574.44;4328205;28;20283;-66
2023/03/16 07:40:42;;;;;;;38.90;15.27;;;;;;;-147.16;51.48;77246.41;4304756;28;20235;-67
2023/03/16 07:43:09;;;;;;;39.77;15.67;;;;;;;-147.16;43.25;76928.53;4273534;28;20314;-66
2023/03/16 07:45:36;;;;;;;37.97;14.77;;;;;;;-147.16;39.29;76792.88;4288971;28;20673;-64
2023/03/16 07:48:02;;;;;;;35.33;14.57;;;;;;;-147.16;35.17;76428.47;4368203;28;20525;-67
2023/03/16 07:50:29;;;;;;;40.43;15.33;;;;;;;-147.16;32.32;76373.81;4368392;28;20306;-66
2023/03/16 07:52:56;;;;;;;33.57;14.10;;;;;;;-147.16;31.29;76369.75;4332761;28;20385;-64
2023/03/16 07:55:23;;;;;;;43.13;14.97;;;;;;;-147.16;31.79;76428.47;4316520;27;22045;-66
2023/03/16 07:57:50;;;;;;;36.90;15.10;;;;;;;-147.16;30.23;76256.41;4280989;28;20316;-64
2023/03/16 08:00:22;;;;;;;35.47;14.20;;;;;;;-147.16;30.73;76367.75;4277049;28;21505;-66
2023/03/16 08:02:50;;;;;;;29.37;13.87;;;;;;;-147.16;29.39;76205.78;4269152;28;22276;-64
2023/03/16 08:05:17;;;;;;;32.70;13.17;;;;;;;-147.16;29.60;76209.84;4307404;27;20266;-64
2023/03/16 08:07:44;;;;;;;36.93;14.27;;;;;;;-147.16;28.78;76201.75;4276532;28;20235;-67
2023/03/16 08:10:10;;;;;;;26.07;13.00;;;;;;;-147.16;29.68;76343.44;4323652;28;20249;-65
2023/03/16 08:12:37;;;;;;;32.07;13.60;;;;;;;-147.16;29.43;76248.31;4330162;28;20246;-64
2023/03/16 08:15:05;;;;;;;33.27;14.13;;;;;;;-147.16;30.88;76418.34;4355780;28;20250;-64
2023/03/16 08:17:33;;;;;;;31.47;13.73;;;;;;;-147.16;32.78;76541.84;4320589;28;20236;-66
2023/03/16 08:20:00;;;;;;;30.73;14.10;;;;;;;-147.16;30.26;76321.19;4336477;28;21227;-65
2023/03/16 08:22:27;;;;;;;30.80;13.93;;;;;;;-147.16;29.65;76193.66;4283412;28;20263;-65
2023/03/16 08:24:55;;;;;;;34.37;14.27;;;;;;;-147.16;28.65;76171.38;4301909;28;20388;-64
2023/03/16 08:27:22;;;;;;;31.27;13.13;;;;;;;-147.16;28.83;76185.56;4274467;28;20237;-65
2023/03/16 08:29:52;;;;;;;32.63;13.87;;;;;;;-147.16;28.16;76096.47;4252254;28;20230;-66
2023/03/16 08:32:19;;;;;;;32.70;13.73;;;;;;;-147.16;28.56;76209.84;4288828;28;20236;-64
2023/03/16 08:34:46;;;;;;;29.63;13.50;;;;;;;-147.16;28.62;76238.19;4272641;28;20870;-69
2023/03/16 08:37:15;;;;;;;30.63;13.30;;;;;;;-147.16;27.87;76100.53;4259120;28;20233;-67
2023/03/16 08:39:42;;;;;;;29.40;12.93;;;;;;;-147.16;28.24;76181.50;4270498;28;20302;-66
2023/03/16 08:42:09;;;;;;;32.30;13.27;;;;;;;-147.16;27.28;76005.41;4302929;28;20421;-66
2023/03/16 08:44:36;;;;;;;34.23;12.93;;;;;;;-147.16;26.32;75950.75;4268072;28;20242;-69
2023/03/16 08:47:04;;;;;;;26.23;11.13;;;;;;;-147.16;30.47;76501.34;4295802;28;20666;-67
2023/03/16 08:49:33;;;;;;;27.30;12.10;;;;;;;-147.16;35.09;76867.78;4273853;28;22438;-66
2023/03/16 08:52:00;;;;;;;28.87;12.30;;;;;;;-147.16;37.47;76975.09;4323075;28;20293;-65
2023/03/16 08:54:27;;;;;;;34.77;13.20;;;;;;;-147.16;40.31;77031.78;4291128;28;21345;-64
2023/03/16 08:56:54;;;;;;;39.60;13.77;;;;;;;-147.16;42.90;77163.38;4302173;28;21128;-64
2023/03/16 08:59:20;;;;;;;28.37;13.03;;;;;;;-147.16;45.14;77228.19;4292904;28;20238;-64
2023/03/16 09:01:56;;;;;;;30.83;13.00;;;;;;;-147.16;43.59;77141.13;4287454;28;20233;-66
2023/03/16 09:04:23;;;;;;;32.27;12.77;;;;;;;-147.16;44.55;77189.72;4297421;28;20219;-64
2023/03/16 09:06:50;;;;;;;29.00;11.60;;;;;;;-147.16;43.36;77133.00;4285932;28;21132;-63
2023/03/16 09:09:34;;;;;;;30.17;12.10;;;;;;;-147.16;44.06;77181.59;4294789;28;20230;-66
2023/03/16 09:12:03;;;;;;;25.10;11.00;;;;;;;-147.16;43.26;77131.00;4310617;28;21695;-64
2023/03/16 09:14:29;;;;;;;22.77;9.00;;;;;;;-147.16;42.46;77126.94;4296839;28;20249;-69
2023/03/16 09:16:57;;;;;;;19.03;7.63;;;;;;;-147.16;42.85;77151.25;4277125;28;20276;-66
2023/03/16 09:19:24;;;;;;;18.13;6.47;;;;;;;-147.16;42.37;77149.22;4265916;28;20230;-68
2023/03/16 09:21:50;;;;;;;17.43;6.57;;;;;;;-147.16;43.67;77203.88;4291716;28;20624;-65
2023/03/16 09:24:18;;;;;;;20.23;7.90;;;;;;;-147.16;44.13;77232.22;4287056;28;22589;-65
2023/03/16 09:26:44;;;;;;;15.17;6.93;;;;;;;-147.16;44.38;77268.69;4270229;28;25391;-67
2023/03/16 09:29:11;;;;;;;17.57;7.40;;;;;;;-147.16;46.52;77337.53;4277496;28;21359;-64
2023/03/16 09:31:38;;;;;;;17.90;6.17;;;;;;;-147.16;47.61;77396.25;4269212;28;20234;-66
2023/03/16 09:34:04;;;;;;;15.47;6.67;;;;;;;-147.16;48.08;77355.75;4264002;28;20234;-65
2023/03/16 09:36:32;;;;;;;19.60;7.73;;;;;;;-147.16;47.94;77396.25;4258047;28;22107;-66
2023/03/16 09:38:59;;;;;;;19.67;6.87;;;;;;;-147.16;46.93;77317.28;4286763;28;20300;-68
2023/03/16 09:41:38;;;;;;;18.77;7.57;;;;;;;-147.16;46.31;77315.25;4265946;28;21776;-67
2023/03/16 09:44:21;;;;;;;21.30;8.00;;;;;;;-147.16;48.52;77388.13;4273181;28;20242;-67
2023/03/16 09:46:49;;;;;;;16.97;6.70;;;;;;;-147.16;47.44;77339.53;4274153;28;22369;-69
2023/03/16 09:49:19;;;;;;;17.57;7.53;;;;;;;-147.16;49.29;77436.75;4263654;28;20238;-66
2023/03/16 09:52:05;;;;;;;21.63;7.70;;;;;;;-147.16;49.27;77376.00;4279024;28;20331;-67
2023/03/16 09:54:45;;;;;;;16.03;6.17;;;;;;;-147.16;48.42;77359.78;4255063;28;20246;-65
2023/03/16 09:57:26;;;;;;;20.67;7.50;;;;;;;-147.16;49.37;77416.50;4254306;28;20237;-67
2023/03/16 09:59:55;;;;;;;24.10;7.20;;;;;;;-147.16;49.32;77380.03;4246295;28;20345;-66
2023/03/16 10:02:40;;;;;;;19.63;6.70;;;;;;;-147.16;48.42;77321.31;4246028;28;20252;-67
2023/03/16 10:05:20;;;;;;;13.80;5.20;;;;;;;-147.16;49.59;77406.38;4283776;28;21674;-63
2023/03/16 10:08:05;;;;;;;15.10;5.40;;;;;;;-147.16;50.69;77446.88;4262647;28;20238;-66
2023/03/16 10:10:45;;;;;;;24.53;6.03;;;;;;;-147.16;47.91;77400.28;4273471;28;20234;-65
2023/03/16 10:13:30;;;;;;;16.77;5.77;;;;;;;-147.16;48.26;77428.63;4244524;28;23235;-65
2023/03/16 10:16:02;;;;;;;16.33;4.07;;;;;;;-147.16;47.80;77416.50;4257176;28;20229;-66
2023/03/16 10:18:35;;;;;;;10.07;4.00;;;;;;;-147.16;46.60;77461.03;4257605;28;20241;-64
2023/03/16 10:21:02;;;;;;;10.97;4.40;;;;;;;-147.16;46.81;77450.91;4278350;28;21739;-65
2023/03/16 10:23:33;;;;;;;15.03;5.13;;;;;;;-147.16;46.41;77440.78;4279866;28;20407;-64
2023/03/16 10:26:01;;;;;;;10.70;4.83;;;;;;;-147.16;45.28;77473.19;4275621;28;21790;-64
2023/03/16 10:28:30;;;;;;;13.47;5.30;;;;;;;-147.16;46.79;77497.47;4274154;28;20252;-66
2023/03/16 10:30:59;;;;;;;13.53;5.27;;;;;;;-147.16;47.25;77454.97;4308233;28;20233;-65
2023/03/16 10:33:28;;;;;;;22.80;6.07;;;;;;;-147.16;48.05;77448.88;4281813;28;20652;-67
2023/03/16 10:36:11;;;;;;;19.60;6.33;;;;;;;-147.16;48.26;77420.53;4304981;28;21649;-64
2023/03/16 10:38:38;;;;;;;16.20;5.80;;;;;;;-147.16;47.60;77420.53;4304885;28;22031;-64
2023/03/16 10:41:19;;;;;;;12.07;5.20;;;;;;;-147.16;46.71;77420.53;4298442;28;21084;-65
2023/03/16 10:44:13;;;;;;;13.27;5.37;;;;;;;-147.16;47.42;77422.56;4276391;28;20997;-63
2023/03/16 10:47:07;;;;;;;15.07;5.53;;;;;;;-147.16;46.46;77382.06;4299697;28;20843;-65
2023/03/16 10:49:35;;;;;;;24.90;6.73;;;;;;;-147.16;47.64;77327.41;4297225;27;23705;-68
2023/03/16 10:52:32;;;;;;;19.30;6.83;;;;;;;-147.16;46.82;77347.66;4278270;28;20234;-65
2023/03/16 10:55:06;;;;;;;15.73;5.97;;;;;;;-147.16;47.77;77376.00;4305924;28;20576;-64
2023/03/16 10:57:34;;;;;;;17.67;5.93;;;;;;;-147.16;47.81;77345.63;4291381;28;20610;-65
2023/03/16 11:00:13;;;;;;;14.90;4.93;;;;;;;-147.16;44.70;77339.53;4286182;28;21928;-63
2023/03/16 11:02:41;;;;;;;14.97;4.40;;;;;;;-147.16;43.29;77319.28;4276639;28;20939;-64
2023/03/16 11:05:23;;;;;;;15.93;5.27;;;;;;;-147.16;44.39;77359.78;4295328;28;20309;-67
2023/03/16 11:07:52;;;;;;;11.37;3.57;;;;;;;-147.16;44.79;77355.75;4310009;28;22273;-65
2023/03/16 11:10:46;;;;;;;15.77;4.53;;;;;;;-147.16;45.64;77349.66;4269827;28;20722;-64
2023/03/16 11:13:23;;;;;;;16.20;4.80;;;;;;;-147.16;46.20;77339.53;4284812;28;21732;-64
2023/03/16 11:16:00;;;;;;;13.93;4.43;;;;;;;-147.16;45.90;77347.66;4317058;28;21814;-66
2023/03/16 11:18:34;;;;;;;12.37;4.10;;;;;;;-147.16;45.06;77363.84;4253621;28;20242;-62
2023/03/16 11:21:08;;;;;;;9.87;3.83;;;;;;;-147.16;46.21;77416.50;4268795;28;21300;-65
2023/03/16 11:23:38;;;;;;;17.93;4.53;;;;;;;-147.16;46.29;77448.88;4271343;28;21355;-66
2023/03/16 11:26:12;;;;;;;10.77;4.10;;;;;;;-147.16;46.82;77448.88;4284128;28;20535;-66
2023/03/16 11:28:42;;;;;;;16.40;4.57;;;;;;;-147.16;46.64;77473.19;4248267;28;20807;-65
2023/03/16 11:31:31;;;;;;;16.33;3.93;;;;;;;-147.16;47.17;77467.13;4265534;28;21816;-64
2023/03/16 11:33:58;;;;;;;14.20;4.27;;;;;;;-147.16;48.06;77497.47;4261053;28;20237;-68
2023/03/16 11:36:42;;;;;;;14.13;4.97;;;;;;;-147.16;47.88;77509.63;4270423;28;20350;-66
2023/03/16 11:39:11;;;;;;;12.40;3.60;;;;;;;-147.16;49.32;77550.13;4272020;28;20893;-65
2023/03/16 11:41:53;;;;;;;17.87;4.57;;;;;;;-147.16;50.14;77564.31;4261118;28;20248;-67
2023/03/16 11:44:35;;;;;;;15.70;5.10;;;;;;;-147.16;51.38;77580.50;4253522;28;20233;-65
2023/03/16 11:47:24;;;;;;;10.53;3.90;;;;;;;-147.16;51.74;77594.69;4270922;28;20275;-67
2023/03/16 11:50:10;;;;;;;15.20;4.70;;;;;;;-147.16;51.45;77566.34;4254769;28;20335;-65
2023/03/16 11:52:52;;;;;;;16.77;4.70;;;;;;;-147.16;52.32;77572.41;4245226;28;22097;-63
2023/03/16 11:55:27;;;;;;;18.67;5.00;;;;;;;-147.16;53.25;77568.34;4266595;28;20221;-65
2023/03/16 11:58:21;;;;;;;18.67;5.47;;;;;;;-147.16;52.41;77540.00;4257866;28;20410;-63
2023/03/16 12:00:56;;;;;;;13.10;4.20;;;;;;;-147.16;52.01;77546.09;4296550;28;21742;-65
2023/03/16 12:03:41;;;;;;;19.47;4.90;;;;;;;-147.16;51.51;77546.09;4279520;28;23008;-64
2023/03/16 12:06:22;;;;;;;15.90;4.50;;;;;;;-147.16;50.69;77531.91;4268006;28;20236;-62
2023/03/16 12:09:03;;;;;;;9.70;3.43;;;;;;;-147.16;47.50;77529.88;4275862;28;21788;-68
2023/03/16 12:11:35;;;;;;;10.83;4.07;;;;;;;-147.16;48.84;77533.94;4271697;28;20269;-64
2023/03/16 12:14:21;;;;;;;13.20;3.73;;;;;;;-147.16;50.34;77535.97;4259135;28;21199;-67
2023/03/16 12:16:56;;;;;;;19.33;5.07;;;;;;;-147.16;51.15;77521.78;4245383;28;20233;-64
2023/03/16 12:19:41;;;;;;;15.07;4.90;;;;;;;-147.16;51.04;77529.88;4268886;28;20229;-64
2023/03/16 12:22:21;;;;;;;19.50;4.67;;;;;;;-147.16;51.26;77544.06;4293356;28;20361;-64
2023/03/16 12:24:49;;;;;;;17.17;4.27;;;;;;;-147.16;50.04;77562.28;4282982;28;20652;-66
2023/03/16 12:27:22;;;;;;;14.47;4.20;;;;;;;-147.16;49.79;77560.25;4296346;28;20234;-66
2023/03/16 12:29:54;;;;;;;20.63;3.73;;;;;;;-147.16;49.61;77542.03;4280626;28;20351;-65
2023/03/16 12:32:33;;;;;;;14.03;4.10;;;;;;;-147.16;49.88;77542.03;4270995;28;20225;-66
2023/03/16 12:35:26;;;;;;;17.87;3.90;;;;;;;-147.16;49.28;77533.94;4268061;28;20667;-65
2023/03/16 12:38:24;;;;;;;15.63;4.00;;;;;;;-147.16;49.91;77537.97;4285067;28;20775;-65